sensor_id;sensor_type;location;lat;lon;timestamp;P1;durP1;ratioP1;P2;durP2;ratioP2
22219;SDS011;11279;48.364;10.904;2023-04-01T00:00:56;2.30;;;0.70;;
22219;SDS011;11279;48.364;10.904;2023-04-01T00:01:57;2.30;;;0.80;;
22219;SDS011;11279;48.364;10.904;2023-04-01T00:02:57;3.10;;;0.90;;
22219;SDS011;11279;48.364;10.904;2023-04-01T00:03:58;1.93;;;0.90;;
22219;SDS011;11279;48.364;10.904;2023-04-01T00:04:59;1.57;;;0.90;;
22219;SDS011;11279;48.364;10.904;2023-04-01T00:05:59;3.47;;;1.10;;
22219;SDS011;11279;48.364;10.904;2023-04-01T00:07:00;5.28;;;0.88;;
22219;SDS011;11279;48.364;10.904;2023-04-01T00:08:01;4.97;;;1.17;;
22219;SDS011;11279;48.364;10.904;2023-04-01T00:09:02;3.20;;;0.90;;
22219;SDS011;11279;48.364;10.904;2023-04-01T00:10:06;2.93;;;1.03;;
22219;SDS011;11279;48.364;10.904;2023-04-01T00:11:07;2.95;;;0.88;;
22219;SDS011;11279;48.364;10.904;2023-04-01T00:12:07;2.87;;;1.00;;
22219;SDS011;11279;48.364;10.904;2023-04-01T00:13:08;3.27;;;1.00;;
22219;SDS011;11279;48.364;10.904;2023-04-01T00:14:08;1.70;;;0.87;;
22219;SDS011;11279;48.364;10.904;2023-04-01T00:15:10;4.03;;;0.88;;
22219;SDS011;11279;48.364;10.904;2023-04-01T00:16:11;4.00;;;1.30;;
22219;SDS011;11279;48.364;10.904;2023-04-01T00:17:12;3.40;;;1.00;;
22219;SDS011;11279;48.364;10.904;2023-04-01T00:18:13;2.50;;;1.00;;
22219;SDS011;11279;48.364;10.904;2023-04-01T00:19:13;3.03;;;0.90;;
22219;SDS011;11279;48.364;10.904;2023-04-01T00:20:15;3.25;;;0.98;;
22219;SDS011;11279;48.364;10.904;2023-04-01T00:21:16;5.47;;;1.10;;
22219;SDS011;11279;48.364;10.904;2023-04-01T00:22:17;3.90;;;0.75;;
22219;SDS011;11279;48.364;10.904;2023-04-01T00:23:17;6.77;;;0.97;;
22219;SDS011;11279;48.364;10.904;2023-04-01T00:24:18;3.53;;;0.80;;
22219;SDS011;11279;48.364;10.904;2023-04-01T00:25:19;4.37;;;1.13;;
22219;SDS011;11279;48.364;10.904;2023-04-01T00:26:20;2.77;;;0.80;;
22219;SDS011;11279;48.364;10.904;2023-04-01T00:27:21;3.40;;;0.82;;
22219;SDS011;11279;48.364;10.904;2023-04-01T00:28:22;2.23;;;0.80;;
22219;SDS011;11279;48.364;10.904;2023-04-01T00:29:22;3.23;;;1.00;;
22219;SDS011;11279;48.364;10.904;2023-04-01T00:30:24;2.97;;;1.00;;
22219;SDS011;11279;48.364;10.904;2023-04-01T00:31:24;5.93;;;0.83;;
22219;SDS011;11279;48.364;10.904;2023-04-01T00:32:25;1.27;;;0.60;;
22219;SDS011;11279;48.364;10.904;2023-04-01T00:33:26;5.13;;;1.00;;
22219;SDS011;11279;48.364;10.904;2023-04-01T00:34:27;4.15;;;1.40;;
22219;SDS011;11279;48.364;10.904;2023-04-01T00:35:27;3.33;;;0.97;;
22219;SDS011;11279;48.364;10.904;2023-04-01T00:36:28;1.97;;;1.03;;
22219;SDS011;11279;48.364;10.904;2023-04-01T00:37:29;4.00;;;0.97;;
22219;SDS011;11279;48.364;10.904;2023-04-01T00:38:29;3.57;;;1.00;;
22219;SDS011;11279;48.364;10.904;2023-04-01T00:39:30;3.20;;;1.00;;
22219;SDS011;11279;48.364;10.904;2023-04-01T00:40:35;4.78;;;0.93;;
22219;SDS011;11279;48.364;10.904;2023-04-01T00:41:37;5.03;;;0.95;;
22219;SDS011;11279;48.364;10.904;2023-04-01T00:42:38;2.47;;;1.00;;
22219;SDS011;11279;48.364;10.904;2023-04-01T00:43:38;5.70;;;1.10;;
22219;SDS011;11279;48.364;10.904;2023-04-01T00:44:39;3.50;;;0.97;;
22219;SDS011;11279;48.364;10.904;2023-04-01T00:45:42;3.30;;;1.30;;
22219;SDS011;11279;48.364;10.904;2023-04-01T00:46:43;3.85;;;1.08;;
22219;SDS011;11279;48.364;10.904;2023-04-01T00:47:43;4.67;;;1.27;;
22219;SDS011;11279;48.364;10.904;2023-04-01T00:48:45;3.47;;;1.00;;
22219;SDS011;11279;48.364;10.904;2023-04-01T00:49:49;4.43;;;1.08;;
22219;SDS011;11279;48.364;10.904;2023-04-01T00:50:52;3.40;;;0.98;;
22219;SDS011;11279;48.364;10.904;2023-04-01T00:51:56;7.25;;;1.17;;
22219;SDS011;11279;48.364;10.904;2023-04-01T00:52:58;3.35;;;0.90;;
22219;SDS011;11279;48.364;10.904;2023-04-01T00:53:59;3.50;;;1.02;;
22219;SDS011;11279;48.364;10.904;2023-04-01T00:55:01;2.38;;;0.85;;
22219;SDS011;11279;48.364;10.904;2023-04-01T00:56:07;5.97;;;1.17;;
22219;SDS011;11279;48.364;10.904;2023-04-01T00:57:12;3.22;;;0.95;;
22219;SDS011;11279;48.364;10.904;2023-04-01T00:58:16;4.15;;;1.10;;
22219;SDS011;11279;48.364;10.904;2023-04-01T00:59:21;2.70;;;0.73;;
22219;SDS011;11279;48.364;10.904;2023-04-01T01:00:24;3.20;;;0.70;;
22219;SDS011;11279;48.364;10.904;2023-04-01T01:01:26;4.05;;;1.45;;
22219;SDS011;11279;48.364;10.904;2023-04-01T01:02:28;1.75;;;0.85;;
22219;SDS011;11279;48.364;10.904;2023-04-01T01:03:28;2.43;;;0.80;;
22219;SDS011;11279;48.364;10.904;2023-04-01T01:04:30;1.50;;;0.80;;
22219;SDS011;11279;48.364;10.904;2023-04-01T01:05:42;3.25;;;1.00;;
22219;SDS011;11279;48.364;10.904;2023-04-01T01:08:28;2.65;;;0.70;;
22219;SDS011;11279;48.364;10.904;2023-04-01T01:09:59;5.10;;;0.95;;
22219;SDS011;11279;48.364;10.904;2023-04-01T01:11:19;3.50;;;0.73;;
22219;SDS011;11279;48.364;10.904;2023-04-01T01:12:25;3.67;;;0.90;;
22219;SDS011;11279;48.364;10.904;2023-04-01T01:13:48;2.72;;;0.88;;
22219;SDS011;11279;48.364;10.904;2023-04-01T01:15:20;4.93;;;1.20;;
22219;SDS011;11279;48.364;10.904;2023-04-01T01:16:27;2.28;;;0.57;;
22219;SDS011;11279;48.364;10.904;2023-04-01T01:19:08;2.90;;;0.88;;
22219;SDS011;11279;48.364;10.904;2023-04-01T01:24:44;2.25;;;0.70;;
22219;SDS011;11279;48.364;10.904;2023-04-01T01:26:05;3.05;;;0.73;;
22219;SDS011;11279;48.364;10.904;2023-04-01T01:27:26;3.80;;;1.30;;
22219;SDS011;11279;48.364;10.904;2023-04-01T01:31:01;3.35;;;0.90;;
22219;SDS011;11279;48.364;10.904;2023-04-01T01:33:21;2.10;;;0.95;;
22219;SDS011;11279;48.364;10.904;2023-04-01T01:34:30;2.42;;;1.05;;
22219;SDS011;11279;48.364;10.904;2023-04-01T01:35:40;4.05;;;0.80;;
22219;SDS011;11279;48.364;10.904;2023-04-01T01:36:55;2.08;;;0.73;;
22219;SDS011;11279;48.364;10.904;2023-04-01T01:38:00;3.63;;;0.70;;
22219;SDS011;11279;48.364;10.904;2023-04-01T01:39:05;1.52;;;0.63;;
22219;SDS011;11279;48.364;10.904;2023-04-01T01:40:07;3.05;;;0.90;;
22219;SDS011;11279;48.364;10.904;2023-04-01T01:41:11;3.85;;;0.90;;
22219;SDS011;11279;48.364;10.904;2023-04-01T01:42:15;1.02;;;0.57;;
22219;SDS011;11279;48.364;10.904;2023-04-01T01:43:17;2.17;;;0.70;;
22219;SDS011;11279;48.364;10.904;2023-04-01T01:44:23;2.28;;;0.90;;
22219;SDS011;11279;48.364;10.904;2023-04-01T01:45:24;2.77;;;1.10;;
22219;SDS011;11279;48.364;10.904;2023-04-01T01:46:26;2.10;;;1.00;;
22219;SDS011;11279;48.364;10.904;2023-04-01T01:47:27;6.07;;;0.90;;
22219;SDS011;11279;48.364;10.904;2023-04-01T01:48:28;3.53;;;1.00;;
22219;SDS011;11279;48.364;10.904;2023-04-01T01:49:29;1.42;;;0.70;;
22219;SDS011;11279;48.364;10.904;2023-04-01T01:50:31;2.35;;;0.88;;
22219;SDS011;11279;48.364;10.904;2023-04-01T01:51:33;1.13;;;0.50;;
22219;SDS011;11279;48.364;10.904;2023-04-01T01:52:33;1.90;;;0.70;;
22219;SDS011;11279;48.364;10.904;2023-04-01T01:53:34;1.10;;;0.70;;
22219;SDS011;11279;48.364;10.904;2023-04-01T01:54:34;3.17;;;0.60;;
22219;SDS011;11279;48.364;10.904;2023-04-01T01:55:39;3.20;;;0.93;;
22219;SDS011;11279;48.364;10.904;2023-04-01T01:56:47;0.75;;;0.60;;
22219;SDS011;11279;48.364;10.904;2023-04-01T01:57:49;5.18;;;1.17;;
22219;SDS011;11279;48.364;10.904;2023-04-01T01:58:51;2.05;;;0.68;;
22219;SDS011;11279;48.364;10.904;2023-04-01T01:59:55;4.15;;;1.10;;
22219;SDS011;11279;48.364;10.904;2023-04-01T02:00:58;2.05;;;0.75;;
22219;SDS011;11279;48.364;10.904;2023-04-01T02:02:01;1.35;;;0.65;;
22219;SDS011;11279;48.364;10.904;2023-04-01T02:03:07;3.08;;;0.80;;
22219;SDS011;11279;48.364;10.904;2023-04-01T02:04:08;2.60;;;1.00;;
22219;SDS011;11279;48.364;10.904;2023-04-01T02:05:10;3.38;;;0.70;;
22219;SDS011;11279;48.364;10.904;2023-04-01T02:06:17;1.73;;;0.85;;
22219;SDS011;11279;48.364;10.904;2023-04-01T02:07:23;3.08;;;0.80;;
22219;SDS011;11279;48.364;10.904;2023-04-01T02:08:26;1.75;;;0.55;;
22219;SDS011;11279;48.364;10.904;2023-04-01T02:09:38;5.25;;;0.90;;
22219;SDS011;11279;48.364;10.904;2023-04-01T02:10:41;2.22;;;0.55;;
22219;SDS011;11279;48.364;10.904;2023-04-01T02:11:47;1.13;;;0.70;;
22219;SDS011;11279;48.364;10.904;2023-04-01T02:12:50;1.83;;;0.70;;
22219;SDS011;11279;48.364;10.904;2023-04-01T02:13:52;1.50;;;0.63;;
22219;SDS011;11279;48.364;10.904;2023-04-01T02:16:17;1.63;;;0.77;;
22219;SDS011;11279;48.364;10.904;2023-04-01T02:17:22;1.02;;;0.50;;
22219;SDS011;11279;48.364;10.904;2023-04-01T02:18:26;1.48;;;0.63;;
22219;SDS011;11279;48.364;10.904;2023-04-01T02:19:31;1.35;;;0.60;;
22219;SDS011;11279;48.364;10.904;2023-04-01T02:20:53;3.03;;;0.65;;
22219;SDS011;11279;48.364;10.904;2023-04-01T02:21:56;0.82;;;0.60;;
22219;SDS011;11279;48.364;10.904;2023-04-01T02:22:57;5.40;;;1.10;;
22219;SDS011;11279;48.364;10.904;2023-04-01T02:24:00;1.65;;;0.60;;
22219;SDS011;11279;48.364;10.904;2023-04-01T02:25:04;2.17;;;0.60;;
22219;SDS011;11279;48.364;10.904;2023-04-01T02:26:07;3.28;;;0.85;;
22219;SDS011;11279;48.364;10.904;2023-04-01T02:27:11;1.52;;;0.70;;
22219;SDS011;11279;48.364;10.904;2023-04-01T02:28:12;2.20;;;0.85;;
22219;SDS011;11279;48.364;10.904;2023-04-01T02:29:13;1.20;;;0.55;;
22219;SDS011;11279;48.364;10.904;2023-04-01T02:30:14;4.27;;;0.90;;
22219;SDS011;11279;48.364;10.904;2023-04-01T02:31:15;2.35;;;0.70;;
22219;SDS011;11279;48.364;10.904;2023-04-01T02:32:16;3.10;;;0.70;;
22219;SDS011;11279;48.364;10.904;2023-04-01T02:33:18;1.92;;;1.17;;
22219;SDS011;11279;48.364;10.904;2023-04-01T02:34:19;4.00;;;0.80;;
22219;SDS011;11279;48.364;10.904;2023-04-01T02:35:21;4.68;;;0.90;;
22219;SDS011;11279;48.364;10.904;2023-04-01T02:36:21;2.40;;;0.60;;
22219;SDS011;11279;48.364;10.904;2023-04-01T02:37:22;2.03;;;0.63;;
22219;SDS011;11279;48.364;10.904;2023-04-01T02:38:23;2.43;;;0.67;;
22219;SDS011;11279;48.364;10.904;2023-04-01T02:39:23;1.00;;;0.53;;
22219;SDS011;11279;48.364;10.904;2023-04-01T02:40:26;1.80;;;0.55;;
22219;SDS011;11279;48.364;10.904;2023-04-01T02:41:26;0.50;;;0.50;;
22219;SDS011;11279;48.364;10.904;2023-04-01T02:42:27;2.58;;;1.20;;
22219;SDS011;11279;48.364;10.904;2023-04-01T02:43:28;0.90;;;0.70;;
22219;SDS011;11279;48.364;10.904;2023-04-01T02:44:28;1.90;;;0.67;;
22219;SDS011;11279;48.364;10.904;2023-04-01T02:45:28;2.87;;;0.70;;
22219;SDS011;11279;48.364;10.904;2023-04-01T02:46:29;3.27;;;0.70;;
22219;SDS011;11279;48.364;10.904;2023-04-01T02:47:29;1.23;;;0.70;;
22219;SDS011;11279;48.364;10.904;2023-04-01T02:48:30;3.63;;;0.60;;
22219;SDS011;11279;48.364;10.904;2023-04-01T02:49:31;2.57;;;0.70;;
22219;SDS011;11279;48.364;10.904;2023-04-01T02:50:31;1.80;;;0.60;;
22219;SDS011;11279;48.364;10.904;2023-04-01T02:51:33;3.00;;;0.50;;
22219;SDS011;11279;48.364;10.904;2023-04-01T02:52:33;0.75;;;0.40;;
22219;SDS011;11279;48.364;10.904;2023-04-01T02:53:34;1.10;;;0.57;;
22219;SDS011;11279;48.364;10.904;2023-04-01T02:54:34;0.97;;;0.50;;
22219;SDS011;11279;48.364;10.904;2023-04-01T02:55:35;2.97;;;0.60;;
22219;SDS011;11279;48.364;10.904;2023-04-01T02:56:35;3.07;;;0.70;;
22219;SDS011;11279;48.364;10.904;2023-04-01T02:57:36;2.73;;;0.40;;
22219;SDS011;11279;48.364;10.904;2023-04-01T02:58:36;1.20;;;0.50;;
22219;SDS011;11279;48.364;10.904;2023-04-01T02:59:36;0.83;;;0.60;;
22219;SDS011;11279;48.364;10.904;2023-04-01T03:00:37;1.10;;;0.60;;
22219;SDS011;11279;48.364;10.904;2023-04-01T03:01:38;1.33;;;0.50;;
22219;SDS011;11279;48.364;10.904;2023-04-01T03:02:38;1.43;;;0.40;;
22219;SDS011;11279;48.364;10.904;2023-04-01T03:03:39;1.53;;;0.53;;
22219;SDS011;11279;48.364;10.904;2023-04-01T03:04:39;1.43;;;0.50;;
22219;SDS011;11279;48.364;10.904;2023-04-01T03:05:40;2.00;;;0.53;;
22219;SDS011;11279;48.364;10.904;2023-04-01T03:06:40;2.70;;;0.53;;
22219;SDS011;11279;48.364;10.904;2023-04-01T03:07:41;1.33;;;0.60;;
22219;SDS011;11279;48.364;10.904;2023-04-01T03:08:41;0.50;;;0.40;;
22219;SDS011;11279;48.364;10.904;2023-04-01T03:09:42;1.95;;;0.50;;
22219;SDS011;11279;48.364;10.904;2023-04-01T03:10:43;0.87;;;0.40;;
22219;SDS011;11279;48.364;10.904;2023-04-01T03:11:43;2.03;;;0.40;;
22219;SDS011;11279;48.364;10.904;2023-04-01T03:12:44;0.80;;;0.47;;
22219;SDS011;11279;48.364;10.904;2023-04-01T03:13:44;0.97;;;0.40;;
22219;SDS011;11279;48.364;10.904;2023-04-01T03:14:45;1.70;;;0.60;;
22219;SDS011;11279;48.364;10.904;2023-04-01T03:15:45;0.67;;;0.33;;
22219;SDS011;11279;48.364;10.904;2023-04-01T03:16:45;0.90;;;0.50;;
22219;SDS011;11279;48.364;10.904;2023-04-01T03:17:46;1.50;;;0.50;;
22219;SDS011;11279;48.364;10.904;2023-04-01T03:18:47;2.17;;;0.40;;
22219;SDS011;11279;48.364;10.904;2023-04-01T03:19:49;0.57;;;0.30;;
22219;SDS011;11279;48.364;10.904;2023-04-01T03:20:50;2.67;;;0.40;;
22219;SDS011;11279;48.364;10.904;2023-04-01T03:21:50;1.30;;;0.50;;
22219;SDS011;11279;48.364;10.904;2023-04-01T03:22:50;0.30;;;0.30;;
22219;SDS011;11279;48.364;10.904;2023-04-01T03:23:51;1.10;;;0.37;;
22219;SDS011;11279;48.364;10.904;2023-04-01T03:24:51;0.80;;;0.50;;
22219;SDS011;11279;48.364;10.904;2023-04-01T03:25:52;1.53;;;0.47;;
22219;SDS011;11279;48.364;10.904;2023-04-01T03:26:52;0.97;;;0.70;;
22219;SDS011;11279;48.364;10.904;2023-04-01T03:27:53;1.77;;;0.37;;
22219;SDS011;11279;48.364;10.904;2023-04-01T03:28:53;0.40;;;0.30;;
22219;SDS011;11279;48.364;10.904;2023-04-01T03:29:55;0.70;;;0.47;;
22219;SDS011;11279;48.364;10.904;2023-04-01T03:30:55;1.40;;;0.67;;
22219;SDS011;11279;48.364;10.904;2023-04-01T03:31:55;0.37;;;0.20;;
22219;SDS011;11279;48.364;10.904;2023-04-01T03:32:58;0.88;;;0.30;;
22219;SDS011;11279;48.364;10.904;2023-04-01T03:33:59;0.30;;;0.30;;
22219;SDS011;11279;48.364;10.904;2023-04-01T03:34:59;0.30;;;0.30;;
22219;SDS011;11279;48.364;10.904;2023-04-01T03:36:00;0.20;;;0.20;;
22219;SDS011;11279;48.364;10.904;2023-04-01T03:37:00;0.30;;;0.30;;
22219;SDS011;11279;48.364;10.904;2023-04-01T03:38:01;1.53;;;0.30;;
22219;SDS011;11279;48.364;10.904;2023-04-01T03:39:01;0.80;;;0.27;;
22219;SDS011;11279;48.364;10.904;2023-04-01T03:40:03;0.30;;;0.30;;
22219;SDS011;11279;48.364;10.904;2023-04-01T03:41:05;0.20;;;0.20;;
22219;SDS011;11279;48.364;10.904;2023-04-01T03:42:05;1.13;;;0.40;;
22219;SDS011;11279;48.364;10.904;2023-04-01T03:43:06;0.85;;;0.40;;
22219;SDS011;11279;48.364;10.904;2023-04-01T03:44:08;0.55;;;0.40;;
22219;SDS011;11279;48.364;10.904;2023-04-01T03:45:08;1.03;;;0.63;;
22219;SDS011;11279;48.364;10.904;2023-04-01T03:46:09;2.08;;;0.43;;
22219;SDS011;11279;48.364;10.904;2023-04-01T03:47:10;2.10;;;0.63;;
22219;SDS011;11279;48.364;10.904;2023-04-01T03:48:10;0.50;;;0.40;;
22219;SDS011;11279;48.364;10.904;2023-04-01T03:49:11;1.23;;;0.40;;
22219;SDS011;11279;48.364;10.904;2023-04-01T03:50:11;0.20;;;0.20;;
22219;SDS011;11279;48.364;10.904;2023-04-01T03:51:12;0.60;;;0.50;;
22219;SDS011;11279;48.364;10.904;2023-04-01T03:52:12;1.87;;;0.80;;
22219;SDS011;11279;48.364;10.904;2023-04-01T03:53:13;1.50;;;0.40;;
22219;SDS011;11279;48.364;10.904;2023-04-01T03:54:13;0.73;;;0.30;;
22219;SDS011;11279;48.364;10.904;2023-04-01T03:55:14;0.87;;;0.33;;
22219;SDS011;11279;48.364;10.904;2023-04-01T03:56:15;0.45;;;0.38;;
22219;SDS011;11279;48.364;10.904;2023-04-01T03:57:15;1.57;;;0.57;;
22219;SDS011;11279;48.364;10.904;2023-04-01T03:58:16;0.60;;;0.40;;
22219;SDS011;11279;48.364;10.904;2023-04-01T03:59:17;3.27;;;0.30;;
22219;SDS011;11279;48.364;10.904;2023-04-01T04:00:17;0.20;;;0.20;;
22219;SDS011;11279;48.364;10.904;2023-04-01T04:01:19;2.63;;;0.40;;
22219;SDS011;11279;48.364;10.904;2023-04-01T04:02:23;0.20;;;0.20;;
22219;SDS011;11279;48.364;10.904;2023-04-01T04:03:23;0.33;;;0.33;;
22219;SDS011;11279;48.364;10.904;2023-04-01T04:04:24;1.70;;;0.40;;
22219;SDS011;11279;48.364;10.904;2023-04-01T04:05:25;0.30;;;0.30;;
22219;SDS011;11279;48.364;10.904;2023-04-01T04:06:26;0.30;;;0.30;;
22219;SDS011;11279;48.364;10.904;2023-04-01T04:07:27;0.70;;;0.50;;
22219;SDS011;11279;48.364;10.904;2023-04-01T04:08:27;2.23;;;0.40;;
22219;SDS011;11279;48.364;10.904;2023-04-01T04:09:29;1.10;;;0.43;;
22219;SDS011;11279;48.364;10.904;2023-04-01T04:10:30;0.38;;;0.38;;
22219;SDS011;11279;48.364;10.904;2023-04-01T04:11:31;1.47;;;0.40;;
22219;SDS011;11279;48.364;10.904;2023-04-01T04:12:32;1.30;;;0.30;;
22219;SDS011;11279;48.364;10.904;2023-04-01T04:13:33;0.87;;;0.40;;
22219;SDS011;11279;48.364;10.904;2023-04-01T04:14:33;1.57;;;0.70;;
22219;SDS011;11279;48.364;10.904;2023-04-01T04:15:34;0.40;;;0.30;;
22219;SDS011;11279;48.364;10.904;2023-04-01T04:16:35;2.17;;;0.43;;
22219;SDS011;11279;48.364;10.904;2023-04-01T04:17:39;1.58;;;0.50;;
22219;SDS011;11279;48.364;10.904;2023-04-01T04:18:39;1.13;;;0.53;;
22219;SDS011;11279;48.364;10.904;2023-04-01T04:19:40;0.30;;;0.30;;
22219;SDS011;11279;48.364;10.904;2023-04-01T04:20:46;2.10;;;0.40;;
22219;SDS011;11279;48.364;10.904;2023-04-01T04:21:50;2.33;;;0.55;;
22219;SDS011;11279;48.364;10.904;2023-04-01T04:22:50;2.07;;;0.80;;
22219;SDS011;11279;48.364;10.904;2023-04-01T04:23:50;2.17;;;0.60;;
22219;SDS011;11279;48.364;10.904;2023-04-01T04:24:51;0.47;;;0.40;;
22219;SDS011;11279;48.364;10.904;2023-04-01T04:26:56;0.52;;;0.40;;
22219;SDS011;11279;48.364;10.904;2023-04-01T04:27:56;0.40;;;0.40;;
22219;SDS011;11279;48.364;10.904;2023-04-01T04:28:57;0.80;;;0.40;;
22219;SDS011;11279;48.364;10.904;2023-04-01T04:29:57;1.13;;;0.50;;
22219;SDS011;11279;48.364;10.904;2023-04-01T04:30:57;0.40;;;0.37;;
22219;SDS011;11279;48.364;10.904;2023-04-01T04:31:58;1.90;;;0.60;;
22219;SDS011;11279;48.364;10.904;2023-04-01T04:32:58;0.57;;;0.50;;
22219;SDS011;11279;48.364;10.904;2023-04-01T04:33:59;1.33;;;0.60;;
22219;SDS011;11279;48.364;10.904;2023-04-01T04:35:01;0.80;;;0.40;;
22219;SDS011;11279;48.364;10.904;2023-04-01T04:36:01;2.33;;;0.50;;
22219;SDS011;11279;48.364;10.904;2023-04-01T04:37:03;1.48;;;0.60;;
22219;SDS011;11279;48.364;10.904;2023-04-01T04:38:04;0.90;;;0.70;;
22219;SDS011;11279;48.364;10.904;2023-04-01T04:39:04;1.27;;;0.50;;
22219;SDS011;11279;48.364;10.904;2023-04-01T04:40:05;1.20;;;0.50;;
22219;SDS011;11279;48.364;10.904;2023-04-01T04:41:10;1.55;;;0.50;;
22219;SDS011;11279;48.364;10.904;2023-04-01T04:42:12;1.48;;;0.65;;
22219;SDS011;11279;48.364;10.904;2023-04-01T04:43:14;0.53;;;0.53;;
22219;SDS011;11279;48.364;10.904;2023-04-01T04:44:15;1.67;;;0.88;;
22219;SDS011;11279;48.364;10.904;2023-04-01T04:45:15;1.33;;;0.60;;
22219;SDS011;11279;48.364;10.904;2023-04-01T04:46:16;2.47;;;0.60;;
22219;SDS011;11279;48.364;10.904;2023-04-01T04:47:16;2.03;;;0.67;;
22219;SDS011;11279;48.364;10.904;2023-04-01T04:48:17;1.50;;;0.80;;
22219;SDS011;11279;48.364;10.904;2023-04-01T04:49:18;2.20;;;0.80;;
22219;SDS011;11279;48.364;10.904;2023-04-01T04:50:19;0.57;;;0.40;;
22219;SDS011;11279;48.364;10.904;2023-04-01T04:51:20;0.83;;;0.50;;
22219;SDS011;11279;48.364;10.904;2023-04-01T04:52:21;0.82;;;0.47;;
22219;SDS011;11279;48.364;10.904;2023-04-01T04:53:21;1.80;;;0.50;;
22219;SDS011;11279;48.364;10.904;2023-04-01T04:54:21;2.00;;;0.80;;
22219;SDS011;11279;48.364;10.904;2023-04-01T04:55:22;1.50;;;0.63;;
22219;SDS011;11279;48.364;10.904;2023-04-01T04:56:22;1.90;;;0.70;;
22219;SDS011;11279;48.364;10.904;2023-04-01T04:57:25;2.03;;;0.70;;
22219;SDS011;11279;48.364;10.904;2023-04-01T04:58:25;2.17;;;0.70;;
22219;SDS011;11279;48.364;10.904;2023-04-01T04:59:26;1.23;;;0.63;;
22219;SDS011;11279;48.364;10.904;2023-04-01T05:00:26;2.03;;;0.60;;
22219;SDS011;11279;48.364;10.904;2023-04-01T05:01:27;2.00;;;0.70;;
22219;SDS011;11279;48.364;10.904;2023-04-01T05:02:28;3.70;;;0.83;;
22219;SDS011;11279;48.364;10.904;2023-04-01T05:03:28;1.93;;;0.90;;
22219;SDS011;11279;48.364;10.904;2023-04-01T05:04:29;0.80;;;0.50;;
22219;SDS011;11279;48.364;10.904;2023-04-01T05:05:30;0.50;;;0.50;;
22219;SDS011;11279;48.364;10.904;2023-04-01T05:06:30;1.90;;;0.50;;
22219;SDS011;11279;48.364;10.904;2023-04-01T05:07:31;4.22;;;0.68;;
22219;SDS011;11279;48.364;10.904;2023-04-01T05:08:33;1.17;;;0.68;;
22219;SDS011;11279;48.364;10.904;2023-04-01T05:09:34;1.07;;;0.63;;
22219;SDS011;11279;48.364;10.904;2023-04-01T05:10:34;2.00;;;0.83;;
22219;SDS011;11279;48.364;10.904;2023-04-01T05:11:35;1.73;;;0.67;;
22219;SDS011;11279;48.364;10.904;2023-04-01T05:12:35;3.70;;;0.80;;
22219;SDS011;11279;48.364;10.904;2023-04-01T05:13:38;2.33;;;0.65;;
22219;SDS011;11279;48.364;10.904;2023-04-01T05:14:39;1.90;;;0.77;;
22219;SDS011;11279;48.364;10.904;2023-04-01T05:15:40;3.40;;;0.80;;
22219;SDS011;11279;48.364;10.904;2023-04-01T05:16:40;3.17;;;0.80;;
22219;SDS011;11279;48.364;10.904;2023-04-01T05:17:40;3.90;;;0.70;;
22219;SDS011;11279;48.364;10.904;2023-04-01T05:18:41;1.33;;;0.57;;
22219;SDS011;11279;48.364;10.904;2023-04-01T05:19:41;1.43;;;0.57;;
22219;SDS011;11279;48.364;10.904;2023-04-01T05:20:51;1.63;;;0.70;;
22219;SDS011;11279;48.364;10.904;2023-04-01T05:21:52;3.33;;;0.88;;
22219;SDS011;11279;48.364;10.904;2023-04-01T05:22:56;2.73;;;0.80;;
22219;SDS011;11279;48.364;10.904;2023-04-01T05:23:57;3.80;;;0.75;;
22219;SDS011;11279;48.364;10.904;2023-04-01T05:24:57;4.60;;;0.70;;
22219;SDS011;11279;48.364;10.904;2023-04-01T05:25:58;2.83;;;0.63;;
22219;SDS011;11279;48.364;10.904;2023-04-01T05:26:59;2.67;;;1.10;;
22219;SDS011;11279;48.364;10.904;2023-04-01T05:27:59;1.90;;;0.70;;
22219;SDS011;11279;48.364;10.904;2023-04-01T05:28:59;2.17;;;0.67;;
22219;SDS011;11279;48.364;10.904;2023-04-01T05:30:00;0.97;;;0.50;;
22219;SDS011;11279;48.364;10.904;2023-04-01T05:31:01;1.60;;;0.70;;
22219;SDS011;11279;48.364;10.904;2023-04-01T05:32:02;2.22;;;0.60;;
22219;SDS011;11279;48.364;10.904;2023-04-01T05:33:03;1.70;;;0.80;;
22219;SDS011;11279;48.364;10.904;2023-04-01T05:34:03;4.20;;;1.40;;
22219;SDS011;11279;48.364;10.904;2023-04-01T05:35:04;2.13;;;1.03;;
22219;SDS011;11279;48.364;10.904;2023-04-01T05:36:05;5.35;;;1.10;;
22219;SDS011;11279;48.364;10.904;2023-04-01T05:37:07;3.20;;;0.73;;
22219;SDS011;11279;48.364;10.904;2023-04-01T05:38:07;1.93;;;0.60;;
22219;SDS011;11279;48.364;10.904;2023-04-01T05:39:08;4.20;;;0.90;;
22219;SDS011;11279;48.364;10.904;2023-04-01T05:40:08;1.93;;;0.60;;
22219;SDS011;11279;48.364;10.904;2023-04-01T05:41:09;2.20;;;0.80;;
22219;SDS011;11279;48.364;10.904;2023-04-01T05:42:10;3.50;;;1.10;;
22219;SDS011;11279;48.364;10.904;2023-04-01T05:43:10;1.93;;;1.10;;
22219;SDS011;11279;48.364;10.904;2023-04-01T05:44:11;2.93;;;0.60;;
22219;SDS011;11279;48.364;10.904;2023-04-01T05:45:11;1.57;;;0.87;;
22219;SDS011;11279;48.364;10.904;2023-04-01T05:46:15;3.95;;;0.82;;
22219;SDS011;11279;48.364;10.904;2023-04-01T05:47:15;2.63;;;0.60;;
22219;SDS011;11279;48.364;10.904;2023-04-01T05:48:16;3.17;;;0.90;;
22219;SDS011;11279;48.364;10.904;2023-04-01T05:49:16;1.20;;;0.70;;
22219;SDS011;11279;48.364;10.904;2023-04-01T05:50:17;0.90;;;0.90;;
22219;SDS011;11279;48.364;10.904;2023-04-01T05:51:17;1.93;;;0.80;;
22219;SDS011;11279;48.364;10.904;2023-04-01T05:52:18;1.07;;;0.60;;
22219;SDS011;11279;48.364;10.904;2023-04-01T05:53:19;1.40;;;0.80;;
22219;SDS011;11279;48.364;10.904;2023-04-01T05:54:20;1.55;;;0.60;;
22219;SDS011;11279;48.364;10.904;2023-04-01T05:55:20;2.60;;;0.97;;
22219;SDS011;11279;48.364;10.904;2023-04-01T05:56:21;2.27;;;1.03;;
22219;SDS011;11279;48.364;10.904;2023-04-01T05:57:21;4.17;;;0.80;;
22219;SDS011;11279;48.364;10.904;2023-04-01T05:58:22;4.20;;;0.90;;
22219;SDS011;11279;48.364;10.904;2023-04-01T05:59:22;2.47;;;0.90;;
22219;SDS011;11279;48.364;10.904;2023-04-01T06:00:22;2.47;;;0.80;;
22219;SDS011;11279;48.364;10.904;2023-04-01T06:01:23;3.53;;;0.87;;
22219;SDS011;11279;48.364;10.904;2023-04-01T06:02:23;2.50;;;1.10;;
22219;SDS011;11279;48.364;10.904;2023-04-01T06:03:24;10.57;;;1.47;;
22219;SDS011;11279;48.364;10.904;2023-04-01T06:04:24;1.90;;;0.70;;
22219;SDS011;11279;48.364;10.904;2023-04-01T06:05:29;3.37;;;1.23;;
22219;SDS011;11279;48.364;10.904;2023-04-01T06:06:30;3.95;;;0.90;;
22219;SDS011;11279;48.364;10.904;2023-04-01T06:07:31;4.93;;;1.00;;
22219;SDS011;11279;48.364;10.904;2023-04-01T06:08:32;2.13;;;0.90;;
22219;SDS011;11279;48.364;10.904;2023-04-01T06:09:32;2.40;;;1.00;;
22219;SDS011;11279;48.364;10.904;2023-04-01T06:10:37;1.37;;;0.80;;
22219;SDS011;11279;48.364;10.904;2023-04-01T06:14:25;4.07;;;0.93;;
22219;SDS011;11279;48.364;10.904;2023-04-01T06:15:53;1.60;;;0.85;;
22219;SDS011;11279;48.364;10.904;2023-04-01T06:17:05;3.92;;;1.10;;
22219;SDS011;11279;48.364;10.904;2023-04-01T06:21:20;2.30;;;1.08;;
22219;SDS011;11279;48.364;10.904;2023-04-01T06:22:35;3.85;;;1.23;;
22219;SDS011;11279;48.364;10.904;2023-04-01T06:26:14;3.10;;;1.08;;
22219;SDS011;11279;48.364;10.904;2023-04-01T06:27:29;3.05;;;0.95;;
22219;SDS011;11279;48.364;10.904;2023-04-01T06:35:02;3.80;;;1.17;;
22219;SDS011;11279;48.364;10.904;2023-04-01T06:36:22;2.95;;;1.30;;
22219;SDS011;11279;48.364;10.904;2023-04-01T06:38:55;4.57;;;1.20;;
22219;SDS011;11279;48.364;10.904;2023-04-01T06:44:23;4.67;;;1.03;;